Dayton, Ohio
Current Conditions -  °F | °C
As of 11:58 PM on Friday 19 Dec 2014 (Local Time) from KFFO Reporting Station
Overcast Overcast  
Wind Chill: 29°   Ceiling: 1800
Heat Index: 29°   Visibility: 10mi
Dew Point: 22°   Wind: 3mph
Humidity: 73%   Direction: 90°E
Pressure: 30.25"   Gusts: NA
Location:  39.76°N, 84.19°W
Report Text: KFFO 200458Z AUTO 09003KT 10SM OVC018 M01/M06 A3025 RMK AO2 SLP256 T10141056 410091028
Loading
Personal Weather Stations






























Interactive Weather Map New forecast layout! Learn more

10-Day Weather Forecast

Advertisements
Track Severe Weather on mobile